createdAt,value
2022-12-01T00:01:30.666Z,100994.92
2022-12-01T00:08:37.349Z,100992.89
2022-12-01T00:11:56.715Z,100987.67
2022-12-01T00:15:06.808Z,100982.71
2022-12-01T00:25:18.924Z,100980.95
2022-12-01T00:28:47.472Z,100979.08
2022-12-01T00:31:59.719Z,100976.23
2022-12-01T00:34:38.497Z,100970.77
2022-12-01T00:37:30.455Z,100970.05
2022-12-01T00:40:36.629Z,100971.61
2022-12-01T00:47:21.552Z,100967.20
2022-12-01T00:50:14.444Z,100973.91
2022-12-01T00:53:25.107Z,100970.31
2022-12-01T00:56:15.649Z,100967.95
2022-12-01T00:59:00.699Z,100970.85
2022-12-01T01:01:52.345Z,100974.13
2022-12-01T01:04:46.004Z,100969.14
2022-12-01T01:07:37.418Z,100969.50
2022-12-01T01:10:19.071Z,100965.64
2022-12-01T01:13:08.142Z,100966.16
2022-12-01T01:15:37.215Z,100967.88
2022-12-01T01:18:21.688Z,100968.40
2022-12-01T01:24:16.978Z,100973.04
2022-12-01T01:27:08.093Z,100970.82
2022-12-01T01:29:48.068Z,100971.85
2022-12-01T01:32:22.883Z,100975.29
2022-12-01T01:35:15.105Z,100975.15
2022-12-01T01:41:18.411Z,100975.16
2022-12-01T01:43:53.898Z,100976.52
2022-12-01T01:46:54.692Z,100976.34
2022-12-01T01:49:51.512Z,100971.53
2022-12-01T01:52:35.746Z,100970.98
2022-12-01T01:55:14.814Z,100968.79
2022-12-01T01:58:04.321Z,100972.45
2022-12-01T02:00:45.741Z,100974.63
2022-12-01T02:03:38.025Z,100968.55
2022-12-01T02:06:26.582Z,100971.20
2022-12-01T02:09:20.219Z,100969.89
2022-12-01T02:12:30.626Z,100967.10
2022-12-01T02:15:24.260Z,100969.85
2022-12-01T02:18:19.965Z,100972.23
2022-12-01T02:21:36.077Z,100972.23
2022-12-01T02:24:28.328Z,100978.08
2022-12-01T02:27:11.950Z,100979.65
2022-12-01T02:30:13.129Z,100977.75
2022-12-01T02:32:47.392Z,100976.35
2022-12-01T02:36:27.432Z,100974.11
2022-12-01T02:40:14.943Z,100975.37
2022-12-01T02:43:19.061Z,100975.27
2022-12-01T02:45:59.168Z,100971.88
2022-12-01T02:48:51.740Z,100968.02
2022-12-01T02:51:35.037Z,100966.13
2022-12-01T02:54:19.211Z,100963.91
2022-12-01T02:56:53.655Z,100963.61
2022-12-01T02:59:34.408Z,100955.27
2022-12-01T03:02:47.401Z,100957.20
2022-12-01T03:06:03.588Z,100957.52
2022-12-01T03:08:58.131Z,100956.19
2022-12-01T03:11:57.331Z,100956.77
2022-12-01T03:15:09.492Z,100955.70
2022-12-01T03:18:30.575Z,100957.77
2022-12-01T03:21:32.621Z,100955.18
2022-12-01T03:24:17.175Z,100959.92
2022-12-01T03:27:07.437Z,100959.40
2022-12-01T03:30:12.511Z,100970.23
2022-12-01T03:33:32.148Z,100962.79
2022-12-01T03:36:30.502Z,100967.74
2022-12-01T03:39:20.012Z,100965.86
2022-12-01T03:42:09.534Z,100965.05
2022-12-01T03:45:02.829Z,100963.36
2022-12-01T03:47:39.804Z,100964.52
2022-12-01T03:50:14.543Z,100959.73
2022-12-01T03:53:28.134Z,100960.67
2022-12-01T03:56:11.315Z,100958.50
2022-12-01T03:58:54.038Z,100959.68
2022-12-01T04:01:32.183Z,100958.13
2022-12-01T04:04:20.713Z,100961.16
2022-12-01T04:06:56.731Z,100962.84
2022-12-01T04:09:35.937Z,100965.09
2022-12-01T04:12:30.469Z,100965.67
2022-12-01T04:15:15.341Z,100963.05
2022-12-01T04:17:54.623Z,100961.89
2022-12-01T04:20:31.658Z,100968.19
2022-12-01T04:23:05.065Z,100965.40
2022-12-01T04:25:47.973Z,100961.41
2022-12-01T04:28:29.743Z,100960.58
2022-12-01T04:31:09.569Z,100957.84
2022-12-01T04:33:57.138Z,100958.55
2022-12-01T04:36:41.040Z,100962.69
2022-12-01T04:39:19.291Z,100961.10
2022-12-01T04:41:53.703Z,100962.13
2022-12-01T04:44:35.226Z,100962.64
2022-12-01T04:47:08.367Z,100962.15
2022-12-01T04:49:44.126Z,100958.63
2022-12-01T04:52:20.598Z,100961.77
2022-12-01T04:54:58.093Z,100970.21
2022-12-01T04:58:06.813Z,100976.54
2022-12-01T05:00:48.654Z,100979.05
2022-12-01T05:03:29.041Z,100979.93
2022-12-01T05:06:45.319Z,100979.89
2022-12-01T05:09:17.909Z,100979.17
2022-12-01T05:11:50.343Z,100978.85
2022-12-01T05:14:19.646Z,100983.66
2022-12-01T05:17:00.449Z,100981.42
2022-12-01T05:20:02.214Z,100985.89
2022-12-01T05:23:05.748Z,100984.17
2022-12-01T05:26:06.437Z,100984.73
2022-12-01T05:29:02.935Z,100985.38
2022-12-01T05:31:54.368Z,100988.94
2022-12-01T05:34:45.335Z,100983.83
2022-12-01T05:37:36.498Z,100988.33
2022-12-01T05:40:16.524Z,100989.33
2022-12-01T05:42:54.711Z,100988.30
2022-12-01T05:45:29.936Z,100991.61
2022-12-01T05:48:19.666Z,100993.38
2022-12-01T05:50:57.141Z,100991.21
2022-12-01T05:53:34.020Z,100987.31
2022-12-01T05:56:07.336Z,100989.23
2022-12-01T05:58:47.289Z,100985.80
2022-12-01T06:01:26.415Z,100988.35
2022-12-01T06:04:10.469Z,100989.20
2022-12-01T06:06:52.152Z,100991.50
2022-12-01T06:09:45.893Z,100989.70
2022-12-01T06:12:41.957Z,100993.00
2022-12-01T06:15:14.948Z,100992.02
2022-12-01T06:17:45.636Z,100994.94
2022-12-01T06:20:28.592Z,100999.27
2022-12-01T06:23:26.325Z,101001.83
2022-12-01T06:25:59.087Z,101003.55
2022-12-01T06:28:41.396Z,101004.25
2022-12-01T06:31:31.983Z,101009.09
2022-12-01T06:34:15.648Z,101008.05
2022-12-01T06:36:52.276Z,101004.30
2022-12-01T06:39:32.995Z,101007.11
2022-12-01T06:42:17.733Z,101008.87
2022-12-01T06:44:47.057Z,101009.86
2022-12-01T06:47:22.794Z,101008.54
2022-12-01T06:50:15.137Z,101006.37
2022-12-01T06:52:53.369Z,101004.00
2022-12-01T06:55:41.833Z,101006.49
2022-12-01T06:58:10.431Z,101008.41
2022-12-01T07:00:38.791Z,101005.70
2022-12-01T07:03:07.036Z,101007.83
2022-12-01T07:05:38.280Z,101011.08
2022-12-01T07:08:16.695Z,101009.25
2022-12-01T07:10:44.820Z,101013.92
2022-12-01T07:17:13.052Z,101013.86
2022-12-01T07:19:47.288Z,101016.96
2022-12-01T07:22:25.873Z,101013.73
2022-12-01T07:25:13.644Z,101016.52
2022-12-01T07:27:43.436Z,101017.27
2022-12-01T07:30:28.226Z,101019.50
2022-12-01T07:32:59.152Z,101024.19
2022-12-01T07:35:28.900Z,101028.51
2022-12-01T07:38:03.364Z,101029.22
2022-12-01T07:40:34.648Z,101026.59
2022-12-01T07:43:07.580Z,101023.07
2022-12-01T07:45:51.199Z,101024.40
2022-12-01T07:48:24.127Z,101022.70
2022-12-01T07:51:08.456Z,101027.73
2022-12-01T07:53:42.174Z,101028.73
2022-12-01T07:56:14.729Z,101028.75
2022-12-01T07:58:58.291Z,101033.06
2022-12-01T08:01:29.298Z,101033.63
2022-12-01T08:04:02.050Z,101033.72
2022-12-01T08:06:35.419Z,101033.26
2022-12-01T08:09:08.686Z,101035.91
2022-12-01T08:11:41.030Z,101034.07
2022-12-01T08:14:14.644Z,101033.42
2022-12-01T08:16:52.780Z,101036.23
2022-12-01T08:19:33.496Z,101036.29
2022-12-01T08:22:05.111Z,101040.98
2022-12-01T08:24:43.879Z,101042.56
2022-12-01T08:27:23.093Z,101041.07
2022-12-01T08:29:52.345Z,101039.73
2022-12-01T08:32:24.787Z,101040.09
2022-12-01T08:34:53.953Z,101041.27
2022-12-01T08:37:31.256Z,101040.40
2022-12-01T08:40:00.143Z,101041.30
2022-12-01T08:42:40.643Z,101040.30
2022-12-01T08:45:23.823Z,101037.52
2022-12-01T08:48:05.846Z,101038.76
2022-12-01T08:50:38.847Z,101032.79
2022-12-01T08:53:18.997Z,101034.02
2022-12-01T08:55:49.308Z,101035.80
2022-12-01T08:58:22.613Z,101035.98
2022-12-01T09:00:53.040Z,101038.03
2022-12-01T09:03:28.908Z,101041.85
2022-12-01T09:06:12.282Z,101042.19
2022-12-01T09:08:48.566Z,101038.33
2022-12-01T09:11:21.568Z,101041.60
2022-12-01T09:13:54.584Z,101042.71
2022-12-01T09:16:28.390Z,101046.36
2022-12-01T09:19:04.088Z,101044.32
2022-12-01T09:21:37.156Z,101043.16
2022-12-01T09:24:14.267Z,101040.60
2022-12-01T09:26:43.935Z,101036.94
2022-12-01T09:29:17.138Z,101037.80
2022-12-01T09:31:45.912Z,101039.02
2022-12-01T09:34:17.996Z,101030.05
2022-12-01T09:37:00.454Z,101026.14
2022-12-01T09:39:49.654Z,101026.16
2022-12-01T09:42:22.612Z,101022.74
2022-12-01T09:45:06.004Z,101021.80
2022-12-01T09:47:51.123Z,101024.38
2022-12-01T09:50:25.723Z,101016.98
2022-12-01T09:53:07.872Z,101014.45
2022-12-01T09:55:50.441Z,101016.77
2022-12-01T09:58:29.954Z,101013.14
2022-12-01T10:01:01.268Z,101013.85
2022-12-01T10:03:34.950Z,101009.58
2022-12-01T10:06:28.741Z,101007.56
2022-12-01T10:09:11.454Z,101007.80
2022-12-01T10:11:42.745Z,101007.88
2022-12-01T10:14:25.064Z,101009.83
2022-12-01T10:17:53.302Z,101003.31
2022-12-01T10:20:36.708Z,101004.27
2022-12-01T10:23:14.236Z,100999.48
2022-12-01T10:26:09.764Z,100998.30
2022-12-01T10:29:12.676Z,101000.61
2022-12-01T10:32:05.952Z,100996.17
2022-12-01T10:34:41.705Z,100994.61
2022-12-01T10:37:24.401Z,100996.21
2022-12-01T10:39:58.074Z,100991.53
2022-12-01T10:42:37.999Z,100992.25
2022-12-01T10:45:39.337Z,100989.02
2022-12-01T10:48:25.963Z,100986.30
2022-12-01T10:51:01.243Z,100985.95
2022-12-01T10:54:22.434Z,100983.52
2022-12-01T10:56:57.068Z,100980.11
2022-12-01T10:59:36.117Z,100981.35
2022-12-01T11:02:28.800Z,100978.73
2022-12-01T11:05:26.500Z,100975.83
2022-12-01T11:07:55.636Z,100972.45
2022-12-01T11:10:33.658Z,100971.61
2022-12-01T11:13:32.148Z,100974.63
2022-12-01T11:16:08.928Z,100972.85
2022-12-01T11:18:49.576Z,100974.42
2022-12-01T11:21:30.492Z,100973.23
2022-12-01T11:24:29.141Z,100971.75
2022-12-01T11:27:16.131Z,100969.03
2022-12-01T11:29:53.179Z,100971.86
2022-12-01T11:32:41.992Z,100971.77
2022-12-01T11:35:25.288Z,100969.42
2022-12-01T11:38:29.273Z,100966.38
2022-12-01T11:41:00.351Z,100966.40
2022-12-01T11:43:41.605Z,100961.58
2022-12-01T11:46:16.888Z,100960.52
2022-12-01T11:49:12.022Z,100960.85
2022-12-01T11:51:52.416Z,100962.24
2022-12-01T11:54:28.119Z,100958.81
2022-12-01T11:57:31.740Z,100960.30
2022-12-01T12:00:00.972Z,100961.75
2022-12-01T12:11:47.524Z,100961.47
2022-12-01T12:14:46.902Z,100958.71
2022-12-01T12:18:02.537Z,100953.72
2022-12-01T12:21:16.133Z,100956.52
2022-12-01T12:23:56.679Z,100952.94
2022-12-01T12:26:54.408Z,100947.48
2022-12-01T12:29:50.258Z,100940.41
2022-12-01T12:32:35.411Z,100936.96
2022-12-01T12:35:54.661Z,100936.80
2022-12-01T12:38:51.983Z,100941.79
2022-12-01T12:41:45.734Z,100936.27
2022-12-01T12:44:43.469Z,100937.83
2022-12-01T12:47:23.342Z,100934.61
2022-12-01T12:49:59.412Z,100933.23
2022-12-01T12:52:52.991Z,100933.41
2022-12-01T12:55:31.477Z,100935.64
2022-12-01T12:58:13.502Z,100931.15
2022-12-01T13:01:01.640Z,100930.63
2022-12-01T13:03:58.997Z,100931.33
2022-12-01T13:06:42.072Z,100929.45
2022-12-01T13:09:23.933Z,100928.98
2022-12-01T13:12:30.449Z,100927.45
2022-12-01T13:15:21.343Z,100929.69
2022-12-01T13:18:01.382Z,100928.96
2022-12-01T13:20:42.102Z,100929.96
2022-12-01T13:23:19.808Z,100927.66
2022-12-01T13:25:58.574Z,100931.11
2022-12-01T13:28:51.858Z,100929.73
2022-12-01T13:31:24.064Z,100928.89
2022-12-01T13:34:05.473Z,100931.13
2022-12-01T13:36:46.528Z,100929.05
2022-12-01T13:39:42.220Z,100930.80
2022-12-01T13:42:27.342Z,100931.85
2022-12-01T13:45:09.931Z,100933.95
2022-12-01T13:47:47.078Z,100932.21
2022-12-01T13:50:55.699Z,100932.02
2022-12-01T13:53:39.251Z,100925.44
2022-12-01T13:56:39.657Z,100928.91
2022-12-01T13:59:29.013Z,100927.33
2022-12-01T14:02:28.656Z,100925.77
2022-12-01T14:05:24.039Z,100925.41
2022-12-01T14:07:57.086Z,100923.02
2022-12-01T14:10:35.670Z,100923.70
2022-12-01T14:13:25.660Z,100927.49
2022-12-01T14:16:05.103Z,100927.30
2022-12-01T14:18:41.808Z,100925.58
2022-12-01T14:21:41.842Z,100926.13
2022-12-01T14:24:35.281Z,100924.91
2022-12-01T14:27:06.178Z,100925.41
2022-12-01T14:29:50.003Z,100920.55
2022-12-01T14:32:25.045Z,100919.69
2022-12-01T14:34:58.464Z,100919.33
2022-12-01T14:37:36.172Z,100922.27
2022-12-01T14:40:14.508Z,100923.11
2022-12-01T14:43:07.068Z,100927.95
2022-12-01T14:45:56.299Z,100925.18
2022-12-01T14:48:41.164Z,100925.36
2022-12-01T14:51:37.597Z,100930.54
2022-12-01T14:54:17.608Z,100926.37
2022-12-01T14:56:50.080Z,100924.28
2022-12-01T14:59:24.576Z,100923.77
2022-12-01T15:01:59.972Z,100921.88
2022-12-01T15:04:28.522Z,100917.71
2022-12-01T15:06:57.509Z,100914.23
2022-12-01T15:09:35.146Z,100915.05
2022-12-01T15:12:09.377Z,100914.02
2022-12-01T15:14:46.457Z,100917.80
2022-12-01T15:17:34.809Z,100921.77
2022-12-01T15:20:04.762Z,100919.87
2022-12-01T15:22:34.370Z,100919.35
2022-12-01T15:25:13.810Z,100923.48
2022-12-01T15:27:43.872Z,100918.98
2022-12-01T15:30:16.960Z,100914.33
2022-12-01T15:32:49.379Z,100911.92
2022-12-01T15:35:21.958Z,100912.95
2022-12-01T15:37:53.849Z,100910.85
2022-12-01T15:43:16.167Z,100916.20
2022-12-01T15:45:50.999Z,100923.98
2022-12-01T15:48:36.765Z,100923.98
2022-12-01T15:51:15.338Z,100923.48
2022-12-01T15:53:56.750Z,100918.81
2022-12-01T15:56:41.059Z,100920.52
2022-12-01T15:59:12.670Z,100918.64
2022-12-01T16:01:44.702Z,100916.04
2022-12-01T16:04:24.503Z,100922.43
2022-12-01T16:07:10.857Z,100923.45
2022-12-01T16:09:58.918Z,100926.70
2022-12-01T16:12:29.501Z,100928.07
2022-12-01T16:15:00.921Z,100927.36
2022-12-01T16:17:44.827Z,100927.21
2022-12-01T16:20:34.205Z,100921.36
2022-12-01T16:23:15.467Z,100916.88
2022-12-01T16:25:48.806Z,100920.84
2022-12-01T16:28:36.214Z,100923.62
2022-12-01T16:31:06.097Z,100926.54
2022-12-01T16:33:38.732Z,100924.65
2022-12-01T16:36:07.077Z,100924.15
2022-12-01T16:38:35.379Z,100920.41
2022-12-01T16:41:16.312Z,100918.88
2022-12-01T16:44:12.587Z,100917.01
2022-12-01T16:46:35.940Z,100921.31
2022-12-01T16:49:04.339Z,100921.80
2022-12-01T16:51:50.012Z,100923.86
2022-12-01T16:54:21.499Z,100928.14
2022-12-01T16:56:49.667Z,100923.48
2022-12-01T16:59:17.968Z,100925.20
2022-12-01T17:01:46.294Z,100922.08
2022-12-01T17:04:14.528Z,100925.66
2022-12-01T17:06:42.734Z,100924.25
2022-12-01T17:09:10.834Z,100924.06
2022-12-01T17:11:38.950Z,100923.73
2022-12-01T17:14:07.208Z,100922.17
2022-12-01T17:16:35.593Z,100920.45
2022-12-01T17:19:04.417Z,100919.60
2022-12-01T17:21:34.955Z,100915.78
2022-12-01T17:24:04.515Z,100919.59
2022-12-01T17:26:32.809Z,100915.14
2022-12-01T17:29:01.390Z,100916.06
2022-12-01T17:31:30.440Z,100915.02
2022-12-01T17:33:59.371Z,100909.48
2022-12-01T17:36:27.481Z,100912.77
2022-12-01T17:38:58.944Z,100913.11
2022-12-01T17:41:32.324Z,100909.45
2022-12-01T17:44:03.828Z,100913.42
2022-12-01T17:46:32.529Z,100919.09
2022-12-01T17:49:01.433Z,100917.33
2022-12-01T17:51:30.077Z,100921.30
2022-12-01T17:53:58.710Z,100922.85
2022-12-01T17:56:27.178Z,100921.84
2022-12-01T17:58:55.478Z,100924.94
2022-12-01T18:01:29.952Z,100923.73
2022-12-01T18:03:59.316Z,100923.91
2022-12-01T18:06:28.645Z,100925.47
2022-12-01T18:08:57.814Z,100927.89
2022-12-01T18:11:26.635Z,100928.94
2022-12-01T18:13:55.505Z,100932.58
2022-12-01T18:16:27.115Z,100932.56
2022-12-01T18:18:59.243Z,100932.76
2022-12-01T18:21:29.206Z,100926.73
2022-12-01T18:24:01.191Z,100923.27
2022-12-01T18:26:32.815Z,100922.23
2022-12-01T18:29:07.619Z,100920.51
2022-12-01T18:31:38.697Z,100921.55
2022-12-01T18:34:12.291Z,100920.16
2022-12-01T18:36:43.685Z,100919.48
2022-12-01T18:39:14.203Z,100918.59
2022-12-01T18:41:43.897Z,100916.70
2022-12-01T18:44:14.740Z,100918.10
2022-12-01T18:46:45.264Z,100912.78
2022-12-01T18:49:14.544Z,100917.63
2022-12-01T18:51:44.719Z,100919.16
2022-12-01T18:54:15.240Z,100918.14
2022-12-01T18:56:46.417Z,100917.60
2022-12-01T18:59:17.584Z,100916.05
2022-12-01T19:01:49.532Z,100910.02
2022-12-01T19:04:19.981Z,100913.31
2022-12-01T19:06:48.938Z,100907.92
2022-12-01T19:09:17.856Z,100912.56
2022-12-01T19:11:46.795Z,100906.13
2022-12-01T19:14:18.175Z,100904.76
2022-12-01T19:16:47.310Z,100904.61
2022-12-01T19:19:16.144Z,100906.19
2022-12-01T19:21:45.535Z,100906.69
2022-12-01T19:24:15.821Z,100902.90
2022-12-01T19:26:46.498Z,100899.82
2022-12-01T19:29:16.113Z,100897.93
2022-12-01T19:31:44.820Z,100896.70
2022-12-01T19:34:14.188Z,100900.14
2022-12-01T19:36:42.971Z,100898.59
2022-12-01T19:39:11.524Z,100900.35
2022-12-01T19:41:40.507Z,100897.23
2022-12-01T19:44:10.329Z,100894.81
2022-12-01T19:46:38.873Z,100894.63
2022-12-01T19:49:07.730Z,100898.09
2022-12-01T19:51:39.308Z,100898.28
2022-12-01T19:54:18.294Z,100897.27
2022-12-01T19:56:47.518Z,100893.67
2022-12-01T19:59:18.129Z,100893.16
2022-12-01T20:01:48.368Z,100895.55
2022-12-01T20:04:19.253Z,100892.75
2022-12-01T20:06:49.463Z,100895.17
2022-12-01T20:09:20.302Z,100895.34
2022-12-01T20:11:51.268Z,100898.94
2022-12-01T20:14:20.506Z,100893.89
2022-12-01T20:16:48.887Z,100891.84
2022-12-01T20:19:18.768Z,100893.00
2022-12-01T20:21:49.615Z,100889.89
2022-12-01T20:24:20.824Z,100891.45
2022-12-01T20:26:52.138Z,100894.58
2022-12-01T20:29:28.778Z,100889.77
2022-12-01T20:32:02.516Z,100888.73
2022-12-01T20:34:35.456Z,100888.71
2022-12-01T20:37:05.189Z,100888.05
2022-12-01T20:39:38.430Z,100882.89
2022-12-01T20:42:10.308Z,100882.38
2022-12-01T20:44:40.354Z,100881.14
2022-12-01T20:47:08.763Z,100878.87
2022-12-01T20:49:37.061Z,100882.31
2022-12-01T20:52:05.517Z,100877.46
2022-12-01T20:54:34.028Z,100877.32
2022-12-01T20:57:02.817Z,100880.12
2022-12-01T20:59:31.121Z,100882.76
2022-12-01T21:02:02.131Z,100882.94
2022-12-01T21:04:31.286Z,100884.67
2022-12-01T21:07:00.791Z,100882.39
2022-12-01T21:09:29.579Z,100880.16
2022-12-01T21:12:19.012Z,100881.92
2022-12-01T21:15:17.963Z,100883.31
2022-12-01T21:17:58.488Z,100888.68
2022-12-01T21:20:32.102Z,100890.38
2022-12-01T21:23:07.043Z,100891.36
2022-12-01T21:25:42.312Z,100890.15
2022-12-01T21:28:27.513Z,100889.62
2022-12-01T21:31:03.537Z,100889.11
2022-12-01T21:33:35.714Z,100890.63
2022-12-01T21:36:20.160Z,100887.86
2022-12-01T21:38:57.221Z,100890.66
2022-12-01T21:41:31.916Z,100889.97
2022-12-01T21:44:13.507Z,100886.70
2022-12-01T21:46:46.378Z,100887.57
2022-12-01T21:49:28.283Z,100883.20
2022-12-01T21:54:56.973Z,100880.08
2022-12-01T21:57:48.532Z,100879.73
2022-12-01T22:00:43.391Z,100876.95
2022-12-01T22:03:36.081Z,100874.34
2022-12-01T22:06:30.060Z,100875.70
2022-12-01T22:09:15.139Z,100875.17
2022-12-01T22:11:54.506Z,100874.67
2022-12-01T22:14:37.705Z,100873.45
2022-12-01T22:17:25.560Z,100875.50
2022-12-01T22:20:23.990Z,100869.62
2022-12-01T22:22:54.268Z,100867.57
2022-12-01T22:25:30.524Z,100871.74
2022-12-01T22:28:14.424Z,100871.21
2022-12-01T22:30:59.167Z,100870.52
2022-12-01T22:33:38.886Z,100869.31
2022-12-01T22:36:24.824Z,100869.11
2022-12-01T22:39:03.256Z,100871.04
2022-12-01T22:44:52.007Z,100870.14
2022-12-01T22:47:38.517Z,100874.30
2022-12-01T22:50:28.767Z,100870.46
2022-12-01T22:53:13.716Z,100872.16
2022-12-01T22:55:48.457Z,100871.33
2022-12-01T22:58:34.296Z,100868.71
2022-12-01T23:01:42.423Z,100865.81
2022-12-01T23:04:32.476Z,100866.33
2022-12-01T23:07:10.873Z,100860.10
2022-12-01T23:09:49.161Z,100857.88
2022-12-01T23:12:30.466Z,100855.80
2022-12-01T23:15:32.576Z,100860.11
2022-12-01T23:18:46.364Z,100856.30
2022-12-01T23:28:18.857Z,100848.04
2022-12-01T23:34:44.013Z,100849.03
2022-12-01T23:42:01.121Z,100846.90
2022-12-01T23:45:26.205Z,100848.49
2022-12-01T23:52:29.875Z,100845.40
2022-12-01T23:53:02.685Z,100843.93
2022-12-01T23:56:07.818Z,100837.32
2022-12-01T23:59:19.257Z,100840.44
